Time;durP1;ratioP1;P1;durP2;ratioP2;P2;SDS_P1;SDS_P2;PMS_P1;PMS_P2;Temp;Humidity;BMP_temperature;BMP_pressure;BME280_temperature;BME280_humidity;BME280_pressure;Samples;Min_cycle;Max_cycle;Signal;HPM_P1;HPM_P2
2022/02/21 00:00:20;;;;;;;26.08;19.75;;;6.50;99.90;;;;;;5038582;28;20206;-74
2022/02/21 00:02:50;;;;;;;22.40;17.98;;;6.50;99.90;;;;;;5043933;28;20230;-77
2022/02/21 00:05:18;;;;;;;21.45;17.25;;;6.60;99.90;;;;;;5044235;28;20206;-76
2022/02/21 00:07:46;;;;;;;23.83;18.83;;;6.60;99.90;;;;;;5043047;28;20720;-75
2022/02/21 00:10:14;;;;;;;23.13;17.38;;;6.60;99.90;;;;;;5042662;28;20277;-75
2022/02/21 00:12:42;;;;;;;21.98;17.40;;;6.60;99.90;;;;;;5044552;28;20269;-75
2022/02/21 00:15:12;;;;;;;22.20;17.58;;;6.60;99.90;;;;;;5045412;28;20438;-75
2022/02/21 00:17:39;;;;;;;20.17;17.38;;;6.60;99.90;;;;;;5039566;28;20221;-76
2022/02/21 00:20:09;;;;;;;21.58;17.08;;;6.60;99.90;;;;;;5043124;28;20623;-75
2022/02/21 00:22:36;;;;;;;21.95;17.45;;;6.60;99.90;;;;;;5043120;28;20222;-76
2022/02/21 00:25:03;;;;;;;19.73;16.20;;;6.60;99.90;;;;;;5051231;28;20547;-74
2022/02/21 00:27:30;;;;;;;21.50;17.00;;;6.60;99.90;;;;;;5042629;28;20230;-75
2022/02/21 00:29:59;;;;;;;19.42;14.95;;;6.60;99.90;;;;;;5040893;28;20198;-76
2022/02/21 00:32:26;;;;;;;21.70;16.85;;;6.60;99.90;;;;;;5039844;28;20216;-77
2022/02/21 00:34:53;;;;;;;21.58;16.48;;;6.50;99.90;;;;;;5039406;28;20303;-76
2022/02/21 00:37:21;;;;;;;18.00;14.57;;;6.50;99.90;;;;;;5040391;28;20223;-77
2022/02/21 00:39:48;;;;;;;19.05;15.18;;;6.50;99.90;;;;;;5037889;28;20283;-77
2022/02/21 00:42:16;;;;;;;19.73;15.20;;;6.50;99.90;;;;;;5036824;28;20234;-77
2022/02/21 00:44:43;;;;;;;19.98;16.08;;;6.50;99.90;;;;;;5037831;28;21277;-76
2022/02/21 00:47:10;;;;;;;20.88;16.92;;;6.60;99.90;;;;;;5039027;28;20226;-77
2022/02/21 00:49:37;;;;;;;19.25;15.43;;;6.60;99.90;;;;;;5040030;28;20473;-77
2022/02/21 00:52:05;;;;;;;20.95;16.52;;;6.60;99.90;;;;;;5042308;28;20223;-76
2022/02/21 00:54:33;;;;;;;21.92;16.50;;;6.60;99.90;;;;;;5046268;28;20195;-77
2022/02/21 00:57:00;;;;;;;23.25;18.67;;;6.70;99.90;;;;;;5041684;28;20214;-77
2022/02/21 00:59:27;;;;;;;22.95;17.63;;;6.60;99.90;;;;;;5042267;28;20285;-76
2022/02/21 01:01:54;;;;;;;21.20;16.17;;;6.60;99.90;;;;;;5044307;28;20234;-77
2022/02/21 01:04:22;;;;;;;23.38;18.15;;;6.60;99.90;;;;;;5048644;28;20194;-76
2022/02/21 01:06:49;;;;;;;21.80;17.23;;;6.60;99.90;;;;;;5042266;28;20254;-78
2022/02/21 01:09:16;;;;;;;22.83;17.00;;;6.60;99.90;;;;;;5046788;28;20739;-76
2022/02/21 01:11:44;;;;;;;22.95;18.38;;;6.60;99.90;;;;;;5042909;28;20712;-75
2022/02/21 01:14:11;;;;;;;23.30;17.42;;;6.60;99.90;;;;;;5041954;28;20596;-77
2022/02/21 01:16:38;;;;;;;22.30;17.98;;;6.60;99.90;;;;;;5041850;28;20722;-77
2022/02/21 01:19:05;;;;;;;26.55;20.00;;;6.60;99.90;;;;;;5044407;28;20206;-78
2022/02/21 01:21:32;;;;;;;24.70;18.00;;;6.50;99.90;;;;;;5043717;28;20198;-76
2022/02/21 01:24:00;;;;;;;23.85;18.65;;;6.50;99.90;;;;;;5040962;28;20502;-76
2022/02/21 01:26:27;;;;;;;22.73;18.85;;;6.50;99.90;;;;;;5041399;28;20197;-75
2022/02/21 01:28:56;;;;;;;21.58;17.38;;;6.50;99.90;;;;;;5044983;28;20536;-77
2022/02/21 01:31:23;;;;;;;24.25;18.85;;;6.50;99.90;;;;;;5044141;28;20264;-77
2022/02/21 01:33:50;;;;;;;26.55;20.27;;;6.50;99.90;;;;;;5046757;28;20191;-76
2022/02/21 01:36:17;;;;;;;24.02;18.45;;;6.40;99.90;;;;;;5046168;28;20273;-77
2022/02/21 01:38:44;;;;;;;22.52;18.55;;;6.30;99.90;;;;;;5039986;28;20227;-74
2022/02/21 01:41:11;;;;;;;25.25;19.45;;;6.30;99.90;;;;;;5041128;28;20198;-75
2022/02/21 01:43:38;;;;;;;24.42;18.23;;;6.30;99.90;;;;;;5042432;28;20223;-76
2022/02/21 01:46:06;;;;;;;22.48;18.35;;;6.20;99.90;;;;;;5043715;28;20198;-76
2022/02/21 01:48:33;;;;;;;26.55;20.85;;;6.20;99.90;;;;;;5042022;28;20659;-77
2022/02/21 01:51:00;;;;;;;22.98;18.92;;;6.20;99.90;;;;;;5044968;28;20207;-76
2022/02/21 01:53:27;;;;;;;20.27;16.88;;;6.20;99.90;;;;;;5046880;28;20211;-76
2022/02/21 01:55:54;;;;;;;22.02;16.73;;;6.20;99.90;;;;;;5041613;28;20569;-74
2022/02/21 01:58:21;;;;;;;23.92;17.35;;;6.20;99.90;;;;;;5044021;28;20233;-76
2022/02/21 02:00:48;;;;;;;21.73;17.73;;;6.20;99.90;;;;;;5040348;28;20210;-77
2022/02/21 02:03:17;;;;;;;21.63;17.25;;;6.20;99.90;;;;;;5040535;28;20219;-77
2022/02/21 02:05:45;;;;;;;22.55;17.63;;;6.30;99.90;;;;;;5042242;28;20253;-75
2022/02/21 02:08:13;;;;;;;24.20;17.27;;;6.30;99.90;;;;;;5043210;28;20221;-75
2022/02/21 02:10:41;;;;;;;24.35;18.52;;;6.30;99.90;;;;;;5040027;28;20256;-76
2022/02/21 02:13:08;;;;;;;24.15;18.73;;;6.30;99.90;;;;;;5045138;28;21144;-76
2022/02/21 02:15:35;;;;;;;22.50;17.88;;;6.30;99.90;;;;;;5042609;28;20277;-77
2022/02/21 02:18:03;;;;;;;23.15;18.65;;;6.20;99.90;;;;;;5041433;28;20673;-77
2022/02/21 02:20:31;;;;;;;25.77;19.90;;;6.20;99.90;;;;;;5038756;28;20302;-76
2022/02/21 02:23:02;;;;;;;27.52;19.10;;;6.30;99.90;;;;;;5041963;28;20323;-77
2022/02/21 02:25:29;;;;;;;28.65;21.25;;;6.20;99.90;;;;;;5042847;28;21239;-76
2022/02/21 02:27:56;;;;;;;22.60;17.58;;;6.20;99.90;;;;;;5041782;28;20222;-75
2022/02/21 02:30:23;;;;;;;23.25;17.92;;;6.20;99.90;;;;;;5043518;28;20225;-78
2022/02/21 02:32:51;;;;;;;20.55;17.35;;;6.10;99.90;;;;;;5044151;28;20697;-74
2022/02/21 02:35:18;;;;;;;18.88;16.10;;;6.00;99.90;;;;;;5043958;28;20207;-76
2022/02/21 02:37:45;;;;;;;20.42;17.23;;;6.00;99.90;;;;;;5041735;28;20222;-76
2022/02/21 02:40:15;;;;;;;18.38;15.98;;;5.90;99.90;;;;;;5041999;28;20203;-76
2022/02/21 02:42:42;;;;;;;19.05;16.55;;;5.90;99.90;;;;;;5043250;28;20226;-77
2022/02/21 02:45:09;;;;;;;17.92;14.93;;;6.00;99.90;;;;;;5045201;28;20707;-76
2022/02/21 02:47:36;;;;;;;22.67;17.95;;;6.00;99.90;;;;;;5048353;28;20222;-77
2022/02/21 02:50:04;;;;;;;22.80;17.17;;;5.90;99.90;;;;;;5042612;28;20203;-76
2022/02/21 02:52:31;;;;;;;22.15;17.48;;;5.80;99.90;;;;;;5044086;28;20654;-74
2022/02/21 02:54:58;;;;;;;20.77;15.70;;;5.70;99.90;;;;;;5042789;28;20696;-76
2022/02/21 02:57:27;;;;;;;19.50;15.68;;;5.60;99.90;;;;;;5044577;28;20246;-76
2022/02/21 02:59:54;;;;;;;18.02;15.35;;;5.70;99.90;;;;;;5041740;28;20210;-76
2022/02/21 03:02:21;;;;;;;19.42;16.30;;;5.80;99.90;;;;;;5042374;28;20305;-77
2022/02/21 03:04:48;;;;;;;15.98;14.07;;;5.80;99.90;;;;;;5044691;28;20272;-76
2022/02/21 03:07:15;;;;;;;16.77;13.75;;;5.80;99.90;;;;;;5046809;28;20225;-75
2022/02/21 03:09:42;;;;;;;19.33;14.70;;;5.90;99.90;;;;;;5044234;28;20199;-73
2022/02/21 03:12:10;;;;;;;17.33;14.38;;;5.90;99.90;;;;;;5044866;28;20223;-75
2022/02/21 03:14:38;;;;;;;17.17;13.68;;;5.90;99.90;;;;;;5044274;28;20199;-77
2022/02/21 03:17:05;;;;;;;16.40;14.32;;;6.00;99.90;;;;;;5048242;28;20223;-75
2022/02/21 03:19:32;;;;;;;18.65;15.07;;;6.00;99.90;;;;;;5143720;22;20219;-76
2022/02/21 03:22:01;;;;;;;20.52;16.42;;;6.00;99.90;;;;;;5067645;28;20195;-78
2022/02/21 03:24:28;;;;;;;21.05;16.00;;;6.10;99.90;;;;;;5054183;28;20215;-76
2022/02/21 03:26:55;;;;;;;20.35;16.77;;;6.10;99.90;;;;;;5040269;28;20662;-76
2022/02/21 03:29:22;;;;;;;20.40;16.08;;;6.10;99.90;;;;;;5043326;28;20280;-75
2022/02/21 03:31:50;;;;;;;21.73;16.55;;;6.10;99.90;;;;;;5042472;28;20195;-77
2022/02/21 03:34:17;;;;;;;19.38;15.25;;;6.10;99.90;;;;;;5041530;28;20615;-76
2022/02/21 03:36:44;;;;;;;17.83;14.93;;;6.00;99.90;;;;;;5040411;28;20199;-78
2022/02/21 03:39:11;;;;;;;20.95;16.02;;;5.90;99.90;;;;;;5042680;28;20249;-76
2022/02/21 03:41:38;;;;;;;18.55;14.75;;;5.90;99.90;;;;;;5042831;28;20195;-76
2022/02/21 03:44:06;;;;;;;19.67;16.08;;;5.80;99.90;;;;;;5040699;28;20223;-76
2022/02/21 03:46:36;;;;;;;19.90;15.77;;;5.80;99.90;;;;;;5041507;28;20202;-76
2022/02/21 03:49:05;;;;;;;18.15;15.32;;;5.80;99.90;;;;;;5037756;28;20219;-76
2022/02/21 03:51:33;;;;;;;18.95;15.65;;;5.80;99.90;;;;;;5045349;28;20238;-76
2022/02/21 03:54:00;;;;;;;17.25;14.05;;;5.70;99.90;;;;;;5040949;28;20215;-76
2022/02/21 03:56:27;;;;;;;17.17;14.95;;;5.70;99.90;;;;;;5041587;28;20203;-77
2022/02/21 03:58:54;;;;;;;18.63;15.05;;;5.70;99.90;;;;;;5042444;28;20284;-78
2022/02/21 04:01:21;;;;;;;18.67;15.38;;;5.70;99.90;;;;;;5042752;28;20190;-81
2022/02/21 04:03:48;;;;;;;19.55;16.20;;;5.60;99.90;;;;;;5056393;28;20647;-77
2022/02/21 04:06:16;;;;;;;19.75;15.27;;;5.70;99.90;;;;;;5063320;28;20202;-76
2022/02/21 04:08:43;;;;;;;17.30;13.73;;;5.70;99.90;;;;;;5063948;28;20998;-81
2022/02/21 04:11:11;;;;;;;18.00;14.40;;;5.60;99.90;;;;;;5065367;28;20194;-76
2022/02/21 04:13:38;;;;;;;17.50;14.05;;;5.70;99.90;;;;;;5063852;28;20595;-76
2022/02/21 04:16:05;;;;;;;17.15;13.93;;;5.70;99.90;;;;;;5071398;28;20225;-77
2022/02/21 04:18:32;;;;;;;18.05;14.52;;;5.70;99.90;;;;;;5065216;28;20225;-75
2022/02/21 04:21:00;;;;;;;18.88;15.05;;;5.70;99.90;;;;;;5062041;28;20198;-76
2022/02/21 04:23:28;;;;;;;16.90;14.45;;;5.70;99.90;;;;;;5064314;28;20210;-77
2022/02/21 04:25:55;;;;;;;20.92;16.35;;;5.70;99.90;;;;;;5061826;28;20205;-76
2022/02/21 04:28:22;;;;;;;19.42;16.00;;;5.70;99.90;;;;;;5065037;28;20696;-75
2022/02/21 04:30:49;;;;;;;18.25;15.25;;;5.70;99.90;;;;;;5061368;28;20195;-75
2022/02/21 04:33:16;;;;;;;18.83;15.93;;;5.70;99.90;;;;;;5063027;28;20226;-75
2022/02/21 04:35:43;;;;;;;18.15;15.07;;;5.70;99.90;;;;;;5064914;28;20494;-76
2022/02/21 04:38:12;;;;;;;18.52;15.43;;;5.70;99.90;;;;;;5063174;28;20228;-76
2022/02/21 04:40:40;;;;;;;19.42;14.65;;;5.60;99.90;;;;;;5063415;28;20225;-77
2022/02/21 04:43:07;;;;;;;18.60;14.82;;;5.60;99.90;;;;;;5063664;28;21460;-78
2022/02/21 04:45:34;;;;;;;20.38;15.80;;;5.60;99.90;;;;;;5063451;28;20255;-76
2022/02/21 04:48:01;;;;;;;18.70;14.40;;;5.60;99.90;;;;;;5061145;28;20225;-76
2022/02/21 04:50:28;;;;;;;18.70;14.43;;;5.60;99.90;;;;;;5061027;28;20543;-76
2022/02/21 04:52:55;;;;;;;21.13;16.52;;;5.60;99.90;;;;;;5063655;28;20232;-75
2022/02/21 04:55:22;;;;;;;20.33;15.57;;;5.60;99.90;;;;;;5061885;28;20244;-76
2022/02/21 04:57:51;;;;;;;16.60;14.15;;;5.40;99.90;;;;;;5063410;28;20226;-76
2022/02/21 05:00:18;;;;;;;16.15;13.65;;;5.40;99.90;;;;;;5064238;28;20210;-76
2022/02/21 05:02:45;;;;;;;15.07;13.23;;;5.30;99.90;;;;;;5064646;28;20222;-76
2022/02/21 05:05:12;;;;;;;15.13;13.52;;;5.30;99.90;;;;;;5060768;28;20790;-76
2022/02/21 05:07:43;;;;;;;15.20;12.18;;;5.30;99.90;;;;;;5063788;28;20698;-76
2022/02/21 05:10:10;;;;;;;14.68;12.57;;;5.40;99.90;;;;;;5071474;28;20220;-76
2022/02/21 05:12:37;;;;;;;15.02;12.13;;;5.40;99.90;;;;;;5062214;28;20318;-79
2022/02/21 05:15:07;;;;;;;16.65;12.98;;;5.30;99.90;;;;;;5062845;28;20193;-78
2022/02/21 05:17:35;;;;;;;17.63;13.75;;;5.20;99.90;;;;;;5062386;28;20255;-78
2022/02/21 05:20:02;;;;;;;15.73;13.98;;;5.10;99.90;;;;;;5063000;28;20275;-77
2022/02/21 05:22:30;;;;;;;15.55;13.30;;;5.10;99.90;;;;;;5066934;28;20223;-76
2022/02/21 05:24:57;;;;;;;14.77;12.18;;;5.10;99.90;;;;;;5063677;28;20222;-77
2022/02/21 05:27:24;;;;;;;14.68;13.05;;;5.20;99.90;;;;;;5064368;28;20252;-76
2022/02/21 05:29:51;;;;;;;15.05;13.45;;;5.30;99.90;;;;;;5041060;28;20445;-78
2022/02/21 05:32:19;;;;;;;16.45;13.65;;;5.40;99.90;;;;;;5043061;28;20203;-76
2022/02/21 05:34:46;;;;;;;14.68;13.13;;;5.40;99.90;;;;;;5036263;28;20214;-76
2022/02/21 05:37:13;;;;;;;14.82;13.15;;;5.50;99.90;;;;;;5039795;28;20210;-76
2022/02/21 05:39:40;;;;;;;17.90;13.75;;;5.50;99.90;;;;;;5036859;28;20697;-76
2022/02/21 05:42:08;;;;;;;17.35;15.00;;;5.40;99.90;;;;;;5037903;28;20206;-77
2022/02/21 05:44:35;;;;;;;18.90;15.32;;;5.40;99.90;;;;;;5044662;28;20624;-81
2022/02/21 05:47:02;;;;;;;19.52;15.02;;;5.40;99.90;;;;;;5034410;28;20586;-76
2022/02/21 05:49:30;;;;;;;16.15;14.07;;;5.30;99.90;;;;;;5059598;28;20226;-77
2022/02/21 05:51:57;;;;;;;16.08;13.02;;;5.30;99.90;;;;;;5060871;28;20671;-78
2022/02/21 05:54:24;;;;;;;15.80;12.82;;;5.30;99.90;;;;;;5063324;28;20221;-77
2022/02/21 05:56:52;;;;;;;18.17;14.57;;;5.30;99.90;;;;;;5065230;28;20213;-76
2022/02/21 05:59:19;;;;;;;17.67;14.60;;;5.40;99.90;;;;;;5063096;28;20230;-76
2022/02/21 06:01:46;;;;;;;14.73;12.75;;;5.40;99.90;;;;;;5063569;28;20723;-76
2022/02/21 06:04:13;;;;;;;17.42;14.32;;;5.40;99.90;;;;;;5069968;28;20226;-82
2022/02/21 06:06:42;;;;;;;17.23;13.48;;;5.50;99.90;;;;;;5065228;28;20190;-79
2022/02/21 06:09:09;;;;;;;19.70;15.25;;;5.50;99.90;;;;;;5066863;28;20226;-78
2022/02/21 06:11:36;;;;;;;15.35;12.20;;;5.50;99.90;;;;;;5062342;28;20202;-77
2022/02/21 06:14:03;;;;;;;16.27;13.48;;;5.60;99.90;;;;;;5064670;28;20743;-76
2022/02/21 06:16:30;;;;;;;16.27;13.48;;;5.60;99.90;;;;;;5065983;28;20194;-76
2022/02/21 06:18:57;;;;;;;16.42;14.02;;;5.70;99.90;;;;;;5068631;28;20217;-77
2022/02/21 06:21:24;;;;;;;15.25;13.57;;;5.70;99.90;;;;;;5068945;28;20202;-80
2022/02/21 06:23:53;;;;;;;16.13;13.30;;;5.70;99.90;;;;;;5065942;28;20275;-76
2022/02/21 06:26:20;;;;;;;14.75;12.50;;;5.70;99.90;;;;;;5069117;28;20210;-81
2022/02/21 06:28:47;;;;;;;15.45;12.57;;;5.70;99.90;;;;;;5057655;28;20226;-78
2022/02/21 06:31:14;;;;;;;14.32;12.75;;;5.70;99.90;;;;;;5042366;28;20209;-75
2022/02/21 06:33:41;;;;;;;17.00;13.48;;;5.70;99.90;;;;;;5053126;28;20228;-77
2022/02/21 06:36:09;;;;;;;14.65;13.18;;;5.80;99.90;;;;;;5071600;28;20526;-76
2022/02/21 06:38:37;;;;;;;16.02;13.98;;;5.80;99.90;;;;;;5062413;28;20218;-77
2022/02/21 06:41:06;;;;;;;16.25;13.70;;;5.80;99.90;;;;;;5060267;28;20195;-76
2022/02/21 06:43:33;;;;;;;15.20;13.30;;;5.80;99.90;;;;;;5061982;28;20763;-74
2022/02/21 06:46:00;;;;;;;17.33;14.43;;;5.80;99.90;;;;;;5063894;28;20766;-76
2022/02/21 06:48:27;;;;;;;16.45;14.50;;;5.70;99.90;;;;;;5060815;28;20225;-76
2022/02/21 06:50:55;;;;;;;16.55;14.32;;;5.60;99.90;;;;;;5059953;28;20210;-75
2022/02/21 06:53:22;;;;;;;15.45;13.45;;;5.50;99.90;;;;;;5063299;28;20214;-76
2022/02/21 06:55:49;;;;;;;17.33;14.38;;;5.50;99.90;;;;;;5068645;28;20217;-80
2022/02/21 06:58:17;;;;;;;15.45;13.85;;;5.50;99.90;;;;;;5067178;28;20230;-75
2022/02/21 07:00:45;;;;;;;17.08;14.27;;;5.60;99.90;;;;;;5061782;28;20202;-75
2022/02/21 07:03:12;;;;;;;14.88;12.55;;;5.60;99.90;;;;;;5063186;28;20213;-75
2022/02/21 07:05:39;;;;;;;13.02;11.52;;;5.60;99.90;;;;;;5064272;28;20715;-78
2022/02/21 07:08:07;;;;;;;14.57;12.38;;;5.70;99.90;;;;;;5063072;28;20222;-72
2022/02/21 07:10:34;;;;;;;14.45;12.95;;;5.80;99.90;;;;;;5062058;28;20194;-77
2022/02/21 07:13:01;;;;;;;14.68;12.52;;;5.80;99.90;;;;;;5062358;28;20706;-77
2022/02/21 07:15:30;;;;;;;15.65;13.85;;;5.80;99.90;;;;;;5062678;28;20194;-78
2022/02/21 07:17:57;;;;;;;17.38;14.73;;;5.90;99.90;;;;;;5060746;28;20428;-77
2022/02/21 07:20:25;;;;;;;19.60;15.88;;;5.90;99.90;;;;;;5060303;28;20198;-75
2022/02/21 07:22:52;;;;;;;18.73;15.73;;;5.80;99.90;;;;;;5061043;28;20191;-77
2022/02/21 07:25:20;;;;;;;19.58;15.27;;;5.80;99.90;;;;;;5062958;28;20214;-77
2022/02/21 07:27:49;;;;;;;17.42;14.90;;;5.70;99.90;;;;;;5062191;28;20194;-78
2022/02/21 07:30:17;;;;;;;18.67;15.15;;;5.70;99.90;;;;;;5060040;28;20217;-78
2022/02/21 07:32:48;;;;;;;15.95;13.95;;;5.70;99.90;;;;;;5060704;28;20206;-80
2022/02/21 07:35:16;;;;;;;16.48;14.77;;;5.70;99.90;;;;;;5058516;28;20211;-79
2022/02/21 07:37:43;;;;;;;17.38;14.02;;;5.80;99.90;;;;;;5062808;28;20751;-73
2022/02/21 07:40:12;;;;;;;17.40;14.23;;;5.80;99.90;;;;;;5062359;28;20267;-74
2022/02/21 07:42:42;;;;;;;21.02;16.08;;;5.90;99.90;;;;;;5060084;28;20203;-76
2022/02/21 07:45:10;;;;;;;20.00;15.70;;;5.90;99.90;;;;;;5038607;28;20223;-75
2022/02/21 07:47:43;;;;;;;17.20;15.02;;;6.00;99.90;;;;;;5040472;28;20195;-77
2022/02/21 07:50:12;;;;;;;18.75;15.30;;;6.00;99.90;;;;;;5052422;28;20217;-76
2022/02/21 07:52:39;;;;;;;20.00;16.40;;;5.90;99.90;;;;;;5041224;28;20260;-75
2022/02/21 07:55:07;;;;;;;17.30;14.27;;;6.00;99.90;;;;;;5036799;28;20218;-75
2022/02/21 07:57:34;;;;;;;16.33;14.13;;;6.00;99.90;;;;;;5042518;28;20646;-76
2022/02/21 08:00:01;;;;;;;16.85;13.75;;;6.10;99.90;;;;;;5036232;28;20706;-77
2022/02/21 08:02:28;;;;;;;20.83;15.63;;;6.20;99.90;;;;;;5040673;28;20199;-76
2022/02/21 08:04:55;;;;;;;18.23;14.82;;;6.20;99.90;;;;;;5058001;28;21430;-74
2022/02/21 08:07:24;;;;;;;16.55;14.13;;;6.20;99.90;;;;;;5064093;28;20186;-73
2022/02/21 08:09:51;;;;;;;22.40;18.05;;;6.20;99.90;;;;;;5059673;28;20265;-76
2022/02/21 08:12:18;;;;;;;24.80;18.10;;;6.00;99.90;;;;;;5058126;28;20255;-78
2022/02/21 08:14:45;;;;;;;19.02;15.93;;;6.00;99.90;;;;;;5060651;28;20214;-79
2022/02/21 08:17:13;;;;;;;19.77;16.13;;;5.90;99.90;;;;;;5066430;28;20197;-77
2022/02/21 08:19:40;;;;;;;17.52;15.68;;;6.00;99.90;;;;;;5071472;28;20222;-74
2022/02/21 08:22:08;;;;;;;17.50;14.57;;;6.10;99.90;;;;;;5072581;28;20221;-79
2022/02/21 08:24:36;;;;;;;17.05;14.63;;;6.20;99.90;;;;;;5074207;28;20317;-78
2022/02/21 08:27:04;;;;;;;18.05;14.73;;;6.30;99.90;;;;;;5072742;28;20195;-76
2022/02/21 08:29:32;;;;;;;20.25;16.38;;;6.40;99.90;;;;;;5070657;28;20222;-76
2022/02/21 08:31:59;;;;;;;22.00;17.25;;;6.40;99.90;;;;;;5058951;28;20195;-76
2022/02/21 08:34:27;;;;;;;22.45;17.08;;;6.30;99.90;;;;;;5059069;28;20271;-76
2022/02/21 08:36:54;;;;;;;23.98;17.88;;;6.10;99.90;;;;;;5064731;28;20193;-76
2022/02/21 08:39:21;;;;;;;19.00;16.40;;;5.90;99.90;;;;;;5061391;28;20666;-75
2022/02/21 08:41:50;;;;;;;20.48;16.88;;;5.90;99.90;;;;;;5071358;28;20233;-74
2022/02/21 08:44:17;;;;;;;18.42;14.77;;;5.90;99.90;;;;;;5061074;28;20272;-75
2022/02/21 08:46:44;;;;;;;18.25;15.25;;;6.00;99.90;;;;;;5063839;28;20701;-76
2022/02/21 08:49:11;;;;;;;18.75;15.95;;;6.00;99.90;;;;;;5061016;28;20224;-77
2022/02/21 08:51:38;;;;;;;18.42;15.13;;;5.90;99.90;;;;;;5061001;28;20311;-76
2022/02/21 08:54:06;;;;;;;18.55;15.68;;;5.80;99.90;;;;;;5060811;28;20249;-76
2022/02/21 08:56:33;;;;;;;18.60;15.15;;;5.90;99.90;;;;;;5060606;28;20210;-76
2022/02/21 08:59:01;;;;;;;22.60;17.67;;;6.00;99.90;;;;;;5056694;28;20228;-77
2022/02/21 09:01:28;;;;;;;21.05;17.02;;;6.00;99.90;;;;;;5058502;28;20198;-76
2022/02/21 09:03:55;;;;;;;22.05;19.13;;;5.90;99.90;;;;;;5059248;28;20221;-76
2022/02/21 09:06:22;;;;;;;22.63;17.95;;;5.90;99.90;;;;;;5060667;28;20236;-73
2022/02/21 09:08:49;;;;;;;22.75;18.00;;;5.90;99.90;;;;;;5056152;28;20712;-73
2022/02/21 09:11:17;;;;;;;20.60;17.38;;;5.80;99.90;;;;;;5059539;28;20467;-78
2022/02/21 09:13:44;;;;;;;19.00;14.93;;;5.90;99.90;;;;;;5060772;28;21243;-74
2022/02/21 09:16:12;;;;;;;24.05;18.88;;;6.00;99.90;;;;;;5061787;28;20204;-78
2022/02/21 09:21:10;;;;;;;20.25;16.27;;;5.90;99.90;;;;;;5036568;28;20451;-71
2022/02/21 09:23:37;;;;;;;17.30;14.77;;;5.80;99.90;;;;;;5040741;28;20681;-71
2022/02/21 09:26:04;;;;;;;17.92;15.68;;;5.70;99.90;;;;;;5040455;28;20321;-71
2022/02/21 09:28:31;;;;;;;18.10;14.60;;;5.70;99.90;;;;;;5036395;28;20249;-71
2022/02/21 09:30:58;;;;;;;20.13;15.48;;;5.60;99.90;;;;;;5012396;28;20200;-71
2022/02/21 09:33:27;;;;;;;17.90;15.05;;;5.70;99.90;;;;;;5011671;28;20205;-71
2022/02/21 09:35:54;;;;;;;18.23;14.75;;;5.70;99.90;;;;;;5013386;28;20199;-71
2022/02/21 09:38:21;;;;;;;17.63;14.57;;;5.60;99.90;;;;;;5014827;28;20209;-70
2022/02/21 09:40:50;;;;;;;19.77;14.95;;;5.60;99.90;;;;;;5003420;28;20251;-71
2022/02/21 09:43:25;;;;;;;16.90;14.25;;;5.60;99.90;;;;;;5011646;28;20260;-71
2022/02/21 09:45:57;;;;;;;19.55;14.82;;;5.70;99.90;;;;;;5014412;28;20223;-71
2022/02/21 09:48:28;;;;;;;16.85;13.73;;;5.80;99.90;;;;;;5019869;28;20662;-71
2022/02/21 09:50:59;;;;;;;16.33;13.75;;;5.90;99.90;;;;;;5033856;28;20661;-71
2022/02/21 09:53:28;;;;;;;17.85;13.82;;;6.00;99.90;;;;;;5030599;28;20199;-71
2022/02/21 09:55:55;;;;;;;18.95;13.77;;;6.10;99.90;;;;;;5037539;28;20317;-70
2022/02/21 09:58:23;;;;;;;17.10;15.07;;;6.10;99.90;;;;;;5031132;28;20205;-71
2022/02/21 10:00:50;;;;;;;17.45;14.55;;;6.10;99.90;;;;;;5025780;28;20283;-70
2022/02/21 10:03:19;;;;;;;17.05;14.27;;;6.00;99.90;;;;;;5030123;28;20223;-71
2022/02/21 10:05:50;;;;;;;17.50;13.85;;;6.10;99.90;;;;;;5028101;28;20338;-71
2022/02/21 10:08:17;;;;;;;18.70;15.50;;;6.20;99.90;;;;;;5029996;28;20234;-70
2022/02/21 10:10:44;;;;;;;19.63;15.77;;;6.30;99.90;;;;;;5031139;28;20288;-70
2022/02/21 10:13:11;;;;;;;25.63;18.52;;;6.30;99.90;;;;;;5032538;28;20214;-71
2022/02/21 10:15:38;;;;;;;20.73;16.70;;;6.20;99.90;;;;;;5031602;28;20223;-71
2022/02/21 10:18:13;;;;;;;18.02;15.75;;;6.10;99.90;;;;;;5032794;28;20452;-70
2022/02/21 10:20:57;;;;;;;20.45;16.33;;;6.00;99.90;;;;;;5030970;28;20763;-71
2022/02/21 10:23:24;;;;;;;18.95;14.70;;;6.00;99.90;;;;;;5033136;28;20198;-71
2022/02/21 10:25:56;;;;;;;18.25;14.60;;;5.90;99.90;;;;;;5036512;28;22456;-70
2022/02/21 10:28:28;;;;;;;16.45;14.10;;;6.00;99.90;;;;;;5032077;28;20203;-71
2022/02/21 10:31:12;;;;;;;17.83;14.57;;;6.10;99.90;;;;;;5030478;28;20281;-71
2022/02/21 10:33:40;;;;;;;17.48;15.57;;;6.30;99.90;;;;;;5030713;28;20194;-71
2022/02/21 10:36:30;;;;;;;19.85;15.43;;;6.50;99.90;;;;;;5032642;28;20200;-71
2022/02/21 10:38:58;;;;;;;14.80;12.73;;;6.60;99.90;;;;;;5032567;28;20223;-73
2022/02/21 10:41:46;;;;;;;15.25;12.25;;;6.70;99.90;;;;;;5029484;28;20261;-72
2022/02/21 10:44:19;;;;;;;16.63;13.30;;;6.80;99.90;;;;;;5029999;28;20253;-73
2022/02/21 10:47:10;;;;;;;16.45;13.30;;;6.80;99.90;;;;;;5040055;28;20253;-72
2022/02/21 10:49:39;;;;;;;15.95;12.90;;;6.80;99.90;;;;;;5033626;28;20223;-72
2022/02/21 10:52:14;;;;;;;16.98;13.75;;;6.80;99.90;;;;;;5030537;28;20595;-73
2022/02/21 10:54:43;;;;;;;20.45;16.08;;;6.70;99.90;;;;;;5033705;28;20229;-73
2022/02/21 10:57:10;;;;;;;18.73;15.43;;;6.60;99.90;;;;;;5032860;28;20721;-74
2022/02/21 10:59:38;;;;;;;20.92;17.13;;;6.50;99.90;;;;;;5029622;28;20679;-72
2022/02/21 11:02:07;;;;;;;19.05;15.95;;;6.40;99.90;;;;;;5032223;28;20195;-72
2022/02/21 11:04:38;;;;;;;16.27;13.88;;;6.30;99.90;;;;;;5036103;28;20227;-72
2022/02/21 11:07:07;;;;;;;18.25;13.43;;;6.30;99.90;;;;;;5042616;28;20551;-72
2022/02/21 11:09:35;;;;;;;13.27;10.95;;;6.40;99.90;;;;;;5040110;28;20306;-72
2022/02/21 11:12:04;;;;;;;14.32;12.32;;;6.40;99.90;;;;;;5036516;28;20195;-72
2022/02/21 11:14:33;;;;;;;17.45;14.90;;;6.40;99.90;;;;;;5037758;28;20838;-73
2022/02/21 11:17:01;;;;;;;403.10;161.35;;;6.50;99.90;;;;;;5038316;28;20921;-71
2022/02/21 11:19:28;;;;;;;133.50;60.50;;;6.60;99.90;;;;;;5032867;28;20266;-73
2022/02/21 11:21:56;;;;;;;92.45;44.97;;;6.70;99.90;;;;;;5033944;28;20214;-74
2022/02/21 11:24:27;;;;;;;47.38;30.38;;;6.70;99.90;;;;;;5039605;28;20764;-71
2022/02/21 11:27:13;;;;;;;36.67;24.35;;;6.60;99.90;;;;;;5036701;28;20245;-74
2022/02/21 11:29:49;;;;;;;34.80;22.73;;;6.50;99.90;;;;;;5035786;28;20219;-72
2022/02/21 11:32:17;;;;;;;33.60;22.92;;;6.50;99.90;;;;;;5036694;28;20214;-72
2022/02/21 11:34:48;;;;;;;36.33;23.42;;;6.50;99.90;;;;;;5040047;28;20228;-72
2022/02/21 11:37:25;;;;;;;27.88;20.90;;;6.60;99.90;;;;;;5034390;28;20211;-72
2022/02/21 11:39:59;;;;;;;26.58;19.45;;;6.70;99.90;;;;;;5034059;28;20222;-72
2022/02/21 11:42:30;;;;;;;23.42;17.30;;;6.70;99.90;;;;;;5037440;28;20234;-71
2022/02/21 11:44:59;;;;;;;21.73;17.80;;;6.80;99.90;;;;;;5036755;28;20227;-70
2022/02/21 11:47:38;;;;;;;24.73;17.63;;;6.90;99.90;;;;;;5037296;28;20314;-72
2022/02/21 11:50:08;;;;;;;27.63;17.77;;;7.00;99.90;;;;;;5039370;28;20801;-72
2022/02/21 11:52:38;;;;;;;20.25;15.13;;;7.10;99.90;;;;;;5036560;28;20203;-73
2022/02/21 11:55:44;;;;;;;18.05;14.73;;;7.30;99.90;;;;;;5035177;28;20226;-72
2022/02/21 11:58:43;;;;;;;19.80;15.80;;;7.30;99.90;;;;;;5035664;28;20951;-72
2022/02/21 12:01:20;;;;;;;20.77;16.20;;;7.40;99.90;;;;;;5026503;28;21858;-72
2022/02/21 12:04:14;;;;;;;21.38;14.90;;;7.40;99.90;;;;;;5032756;28;20265;-71
2022/02/21 12:06:51;;;;;;;16.75;14.15;;;7.20;99.90;;;;;;5037352;28;20309;-72
2022/02/21 12:09:18;;;;;;;15.95;12.93;;;7.00;99.90;;;;;;5051585;28;20383;-72
2022/02/21 12:11:47;;;;;;;16.52;12.88;;;7.00;99.90;;;;;;5050319;28;20202;-72
2022/02/21 12:14:19;;;;;;;16.13;13.20;;;7.00;99.90;;;;;;5050856;28;20206;-72
2022/02/21 12:17:08;;;;;;;12.98;11.32;;;7.10;99.90;;;;;;5053691;28;20224;-72
2022/02/21 12:19:38;;;;;;;14.52;13.02;;;7.30;99.90;;;;;;5051834;28;20229;-73
2022/02/21 12:22:18;;;;;;;14.13;12.30;;;7.40;99.90;;;;;;5052207;28;20535;-73
2022/02/21 12:25:11;;;;;;;14.05;12.50;;;7.50;99.90;;;;;;5053951;28;20218;-73
2022/02/21 12:28:11;;;;;;;17.38;14.57;;;8.10;99.90;;;;;;5052264;28;20225;-73
2022/02/21 12:30:39;;;;;;;18.85;14.77;;;8.60;99.90;;;;;;5049799;28;20318;-74
2022/02/21 12:33:06;;;;;;;15.05;12.98;;;9.10;99.90;;;;;;5051888;28;20202;-74
2022/02/21 12:35:48;;;;;;;15.55;13.55;;;9.50;99.90;;;;;;5050669;28;20736;-73
2022/02/21 12:38:16;;;;;;;16.05;12.77;;;10.20;99.90;;;;;;5052451;28;20198;-74
2022/02/21 12:41:02;;;;;;;15.23;12.35;;;10.80;99.90;;;;;;5044057;28;20222;-74
2022/02/21 12:43:53;;;;;;;12.68;11.30;;;11.20;99.90;;;;;;5050158;28;20641;-73
2022/02/21 12:46:22;;;;;;;15.15;10.93;;;11.40;99.90;;;;;;5054071;28;20233;-75